sensor_id;sensor_type;location;lat;lon;timestamp;pressure;altitude;pressure_sealevel;temperature;humidity
11198;BME280;5655;48.744;9.162;2023-03-16T00:01:38;96395.00;;;2.92;100.00
11198;BME280;5655;48.744;9.162;2023-03-16T00:04:03;96400.44;;;2.95;100.00
11198;BME280;5655;48.744;9.162;2023-03-16T00:06:28;96402.16;;;2.83;100.00
11198;BME280;5655;48.744;9.162;2023-03-16T00:08:54;96404.78;;;2.91;100.00
11198;BME280;5655;48.744;9.162;2023-03-16T00:11:24;96393.72;;;2.98;100.00
11198;BME280;5655;48.744;9.162;2023-03-16T00:13:49;96390.81;;;2.73;100.00
11198;BME280;5655;48.744;9.162;2023-03-16T00:16:15;96392.34;;;2.83;100.00
11198;BME280;5655;48.744;9.162;2023-03-16T00:18:41;96396.22;;;2.86;100.00
11198;BME280;5655;48.744;9.162;2023-03-16T00:21:07;96395.78;;;2.92;100.00
11198;BME280;5655;48.744;9.162;2023-03-16T00:23:33;96397.34;;;2.93;100.00
11198;BME280;5655;48.744;9.162;2023-03-16T00:26:06;96404.75;;;3.17;100.00
11198;BME280;5655;48.744;9.162;2023-03-16T00:28:33;96402.25;;;3.20;100.00
11198;BME280;5655;48.744;9.162;2023-03-16T00:31:07;96402.75;;;3.23;100.00
11198;BME280;5655;48.744;9.162;2023-03-16T00:33:33;96402.63;;;2.93;100.00
11198;BME280;5655;48.744;9.162;2023-03-16T00:36:03;96392.63;;;3.07;100.00
11198;BME280;5655;48.744;9.162;2023-03-16T00:38:31;96401.97;;;3.13;100.00
11198;BME280;5655;48.744;9.162;2023-03-16T00:40:59;96411.78;;;2.96;100.00
11198;BME280;5655;48.744;9.162;2023-03-16T00:43:27;96406.81;;;2.94;100.00
11198;BME280;5655;48.744;9.162;2023-03-16T00:46:00;96403.22;;;3.07;100.00
11198;BME280;5655;48.744;9.162;2023-03-16T00:48:31;96409.00;;;2.92;100.00
11198;BME280;5655;48.744;9.162;2023-03-16T00:50:59;96402.91;;;3.00;100.00
11198;BME280;5655;48.744;9.162;2023-03-16T00:53:25;96403.56;;;2.80;100.00
11198;BME280;5655;48.744;9.162;2023-03-16T00:55:50;96397.94;;;2.90;100.00
11198;BME280;5655;48.744;9.162;2023-03-16T00:58:17;96400.59;;;2.82;100.00
11198;BME280;5655;48.744;9.162;2023-03-16T01:00:44;96396.88;;;2.83;100.00
11198;BME280;5655;48.744;9.162;2023-03-16T01:03:10;96399.50;;;2.91;100.00
11198;BME280;5655;48.744;9.162;2023-03-16T01:05:39;96404.16;;;3.03;100.00
11198;BME280;5655;48.744;9.162;2023-03-16T01:08:05;96401.06;;;2.66;100.00
11198;BME280;5655;48.744;9.162;2023-03-16T01:10:33;96397.94;;;2.73;100.00
11198;BME280;5655;48.744;9.162;2023-03-16T01:12:58;96389.72;;;2.66;100.00
11198;BME280;5655;48.744;9.162;2023-03-16T01:15:24;96390.16;;;2.51;100.00
11198;BME280;5655;48.744;9.162;2023-03-16T01:17:49;96388.44;;;2.55;100.00
11198;BME280;5655;48.744;9.162;2023-03-16T01:20:16;96388.94;;;2.57;100.00
11198;BME280;5655;48.744;9.162;2023-03-16T01:22:43;96385.66;;;2.51;100.00
11198;BME280;5655;48.744;9.162;2023-03-16T01:25:10;96390.78;;;2.48;100.00
11198;BME280;5655;48.744;9.162;2023-03-16T01:27:36;96392.97;;;2.37;100.00
11198;BME280;5655;48.744;9.162;2023-03-16T01:30:03;96390.78;;;2.31;100.00
11198;BME280;5655;48.744;9.162;2023-03-16T01:32:29;96384.25;;;2.19;100.00
11198;BME280;5655;48.744;9.162;2023-03-16T01:34:54;96381.41;;;2.07;100.00
11198;BME280;5655;48.744;9.162;2023-03-16T01:37:20;96374.69;;;1.93;100.00
11198;BME280;5655;48.744;9.162;2023-03-16T01:39:49;96366.50;;;2.03;100.00
11198;BME280;5655;48.744;9.162;2023-03-16T01:42:15;96368.91;;;1.82;100.00
11198;BME280;5655;48.744;9.162;2023-03-16T01:44:56;96372.75;;;2.15;100.00
11198;BME280;5655;48.744;9.162;2023-03-16T01:47:22;96364.56;;;1.86;100.00
11198;BME280;5655;48.744;9.162;2023-03-16T01:49:49;96356.00;;;1.63;100.00
11198;BME280;5655;48.744;9.162;2023-03-16T01:52:22;96361.47;;;1.84;100.00
11198;BME280;5655;48.744;9.162;2023-03-16T01:54:53;96361.59;;;1.70;100.00
11198;BME280;5655;48.744;9.162;2023-03-16T01:57:21;96352.69;;;1.58;100.00
11198;BME280;5655;48.744;9.162;2023-03-16T01:59:54;96360.81;;;1.70;100.00
11198;BME280;5655;48.744;9.162;2023-03-16T02:02:24;96357.09;;;1.71;100.00
11198;BME280;5655;48.744;9.162;2023-03-16T02:07:27;96344.91;;;1.53;100.00
11198;BME280;5655;48.744;9.162;2023-03-16T02:09:58;96347.88;;;1.60;100.00
11198;BME280;5655;48.744;9.162;2023-03-16T02:12:25;96347.16;;;1.28;100.00
11198;BME280;5655;48.744;9.162;2023-03-16T02:14:51;96341.50;;;1.21;100.00
11198;BME280;5655;48.744;9.162;2023-03-16T02:17:22;96348.56;;;1.34;100.00
11198;BME280;5655;48.744;9.162;2023-03-16T02:22:55;96354.09;;;0.94;100.00
11198;BME280;5655;48.744;9.162;2023-03-16T02:25:24;96371.97;;;1.05;100.00
11198;BME280;5655;48.744;9.162;2023-03-16T02:28:09;96366.69;;;1.05;100.00
11198;BME280;5655;48.744;9.162;2023-03-16T02:30:36;96372.31;;;0.81;100.00
11198;BME280;5655;48.744;9.162;2023-03-16T02:33:02;96382.41;;;0.88;100.00
11198;BME280;5655;48.744;9.162;2023-03-16T02:35:29;96395.56;;;0.88;100.00
11198;BME280;5655;48.744;9.162;2023-03-16T02:37:55;96393.13;;;0.91;100.00
11198;BME280;5655;48.744;9.162;2023-03-16T02:40:30;96398.66;;;1.12;100.00
11198;BME280;5655;48.744;9.162;2023-03-16T02:43:15;96398.56;;;1.17;100.00
11198;BME280;5655;48.744;9.162;2023-03-16T02:45:51;96398.81;;;1.07;100.00
11198;BME280;5655;48.744;9.162;2023-03-16T02:48:39;96400.00;;;1.23;100.00
11198;BME280;5655;48.744;9.162;2023-03-16T02:51:09;96394.63;;;1.06;100.00
11198;BME280;5655;48.744;9.162;2023-03-16T02:53:34;96395.81;;;1.00;100.00
11198;BME280;5655;48.744;9.162;2023-03-16T02:55:59;96383.78;;;0.85;100.00
11198;BME280;5655;48.744;9.162;2023-03-16T02:58:27;96388.75;;;0.87;100.00
11198;BME280;5655;48.744;9.162;2023-03-16T03:00:52;96385.22;;;0.91;100.00
11198;BME280;5655;48.744;9.162;2023-03-16T03:03:18;96382.00;;;0.95;100.00
11198;BME280;5655;48.744;9.162;2023-03-16T03:05:43;96379.94;;;0.91;100.00
11198;BME280;5655;48.744;9.162;2023-03-16T03:08:08;96377.69;;;0.99;100.00
11198;BME280;5655;48.744;9.162;2023-03-16T03:10:33;96380.38;;;1.07;100.00
11198;BME280;5655;48.744;9.162;2023-03-16T03:12:59;96375.56;;;1.09;100.00
11198;BME280;5655;48.744;9.162;2023-03-16T03:15:24;96370.78;;;1.11;100.00
11198;BME280;5655;48.744;9.162;2023-03-16T03:17:49;96373.78;;;0.96;100.00
11198;BME280;5655;48.744;9.162;2023-03-16T03:20:15;96382.28;;;1.15;100.00
11198;BME280;5655;48.744;9.162;2023-03-16T03:22:43;96388.34;;;1.16;100.00
11198;BME280;5655;48.744;9.162;2023-03-16T03:25:10;96382.50;;;1.27;100.00
11198;BME280;5655;48.744;9.162;2023-03-16T03:27:35;96378.56;;;1.16;100.00
11198;BME280;5655;48.744;9.162;2023-03-16T03:30:00;96369.84;;;1.07;100.00
11198;BME280;5655;48.744;9.162;2023-03-16T03:32:26;96361.66;;;0.95;100.00
11198;BME280;5655;48.744;9.162;2023-03-16T03:34:51;96364.91;;;1.14;100.00
11198;BME280;5655;48.744;9.162;2023-03-16T03:37:17;96363.47;;;1.08;100.00
11198;BME280;5655;48.744;9.162;2023-03-16T03:39:43;96349.59;;;0.94;100.00
11198;BME280;5655;48.744;9.162;2023-03-16T03:42:09;96355.03;;;0.98;100.00
11198;BME280;5655;48.744;9.162;2023-03-16T03:44:36;96361.66;;;0.95;100.00
11198;BME280;5655;48.744;9.162;2023-03-16T03:47:02;96358.41;;;0.89;100.00
11198;BME280;5655;48.744;9.162;2023-03-16T03:49:28;96360.25;;;0.89;100.00
11198;BME280;5655;48.744;9.162;2023-03-16T03:51:53;96358.91;;;1.00;100.00
11198;BME280;5655;48.744;9.162;2023-03-16T03:54:19;96357.63;;;0.89;100.00
11198;BME280;5655;48.744;9.162;2023-03-16T03:56:45;96361.31;;;0.88;100.00
11198;BME280;5655;48.744;9.162;2023-03-16T03:59:10;96354.25;;;0.75;100.00
11198;BME280;5655;48.744;9.162;2023-03-16T04:01:35;96354.50;;;0.87;100.00
11198;BME280;5655;48.744;9.162;2023-03-16T04:04:01;96356.13;;;0.74;100.00
11198;BME280;5655;48.744;9.162;2023-03-16T04:06:26;96349.22;;;0.87;100.00
11198;BME280;5655;48.744;9.162;2023-03-16T04:08:51;96351.13;;;0.95;100.00
11198;BME280;5655;48.744;9.162;2023-03-16T04:11:19;96359.53;;;0.97;100.00
11198;BME280;5655;48.744;9.162;2023-03-16T04:13:45;96348.56;;;1.04;100.00
11198;BME280;5655;48.744;9.162;2023-03-16T04:16:10;96352.97;;;1.17;100.00
11198;BME280;5655;48.744;9.162;2023-03-16T04:18:40;96345.75;;;1.00;100.00
11198;BME280;5655;48.744;9.162;2023-03-16T04:21:06;96348.75;;;1.07;100.00
11198;BME280;5655;48.744;9.162;2023-03-16T04:23:32;96340.88;;;1.16;100.00
11198;BME280;5655;48.744;9.162;2023-03-16T04:25:59;96342.53;;;1.03;100.00
11198;BME280;5655;48.744;9.162;2023-03-16T04:28:24;96332.34;;;0.88;100.00
11198;BME280;5655;48.744;9.162;2023-03-16T04:30:53;96339.31;;;1.15;100.00
11198;BME280;5655;48.744;9.162;2023-03-16T04:33:20;96336.88;;;0.96;100.00
11198;BME280;5655;48.744;9.162;2023-03-16T04:35:46;96331.09;;;1.08;100.00
11198;BME280;5655;48.744;9.162;2023-03-16T04:38:11;96329.94;;;1.00;100.00
11198;BME280;5655;48.744;9.162;2023-03-16T04:40:37;96326.84;;;0.98;100.00
11198;BME280;5655;48.744;9.162;2023-03-16T04:43:02;96327.25;;;0.91;100.00
11198;BME280;5655;48.744;9.162;2023-03-16T04:45:28;96328.88;;;1.01;100.00
11198;BME280;5655;48.744;9.162;2023-03-16T04:47:53;96326.19;;;0.93;100.00
11198;BME280;5655;48.744;9.162;2023-03-16T04:50:18;96319.00;;;0.84;100.00
11198;BME280;5655;48.744;9.162;2023-03-16T04:52:44;96316.16;;;0.72;100.00
11198;BME280;5655;48.744;9.162;2023-03-16T04:55:09;96322.63;;;0.97;100.00
11198;BME280;5655;48.744;9.162;2023-03-16T04:57:34;96318.56;;;0.91;100.00
11198;BME280;5655;48.744;9.162;2023-03-16T05:00:00;96321.44;;;1.03;100.00
11198;BME280;5655;48.744;9.162;2023-03-16T05:02:25;96332.00;;;1.03;100.00
11198;BME280;5655;48.744;9.162;2023-03-16T05:04:51;96325.16;;;1.02;100.00
11198;BME280;5655;48.744;9.162;2023-03-16T05:07:16;96331.84;;;1.08;100.00
11198;BME280;5655;48.744;9.162;2023-03-16T05:09:41;96324.09;;;1.03;100.00
11198;BME280;5655;48.744;9.162;2023-03-16T05:12:07;96326.44;;;1.13;100.00
11198;BME280;5655;48.744;9.162;2023-03-16T05:14:32;96322.50;;;1.02;100.00
11198;BME280;5655;48.744;9.162;2023-03-16T05:17:00;96313.28;;;0.91;100.00
11198;BME280;5655;48.744;9.162;2023-03-16T05:19:28;96317.66;;;0.96;100.00
11198;BME280;5655;48.744;9.162;2023-03-16T05:21:54;96311.19;;;1.02;100.00
11198;BME280;5655;48.744;9.162;2023-03-16T05:24:21;96322.41;;;1.07;100.00
11198;BME280;5655;48.744;9.162;2023-03-16T05:26:47;96323.69;;;1.18;100.00
11198;BME280;5655;48.744;9.162;2023-03-16T05:29:12;96328.34;;;1.21;100.00
11198;BME280;5655;48.744;9.162;2023-03-16T05:31:38;96321.03;;;1.18;100.00
11198;BME280;5655;48.744;9.162;2023-03-16T05:34:03;96314.91;;;1.31;100.00
11198;BME280;5655;48.744;9.162;2023-03-16T05:36:28;96323.06;;;1.21;100.00
11198;BME280;5655;48.744;9.162;2023-03-16T05:38:53;96313.75;;;1.15;100.00
11198;BME280;5655;48.744;9.162;2023-03-16T05:41:19;96317.25;;;1.02;100.00
11198;BME280;5655;48.744;9.162;2023-03-16T05:43:46;96321.53;;;1.20;100.00
11198;BME280;5655;48.744;9.162;2023-03-16T05:46:12;96317.66;;;1.26;100.00
11198;BME280;5655;48.744;9.162;2023-03-16T05:48:38;96311.19;;;1.32;100.00
11198;BME280;5655;48.744;9.162;2023-03-16T05:51:03;96310.69;;;1.30;100.00
11198;BME280;5655;48.744;9.162;2023-03-16T05:53:31;96310.78;;;1.17;100.00
11198;BME280;5655;48.744;9.162;2023-03-16T05:55:56;96307.38;;;1.08;100.00
11198;BME280;5655;48.744;9.162;2023-03-16T05:58:21;96304.06;;;1.33;100.00
11198;BME280;5655;48.744;9.162;2023-03-16T06:00:47;96305.72;;;1.20;100.00
11198;BME280;5655;48.744;9.162;2023-03-16T06:03:14;96301.03;;;1.17;100.00
11198;BME280;5655;48.744;9.162;2023-03-16T06:05:39;96300.09;;;1.13;100.00
11198;BME280;5655;48.744;9.162;2023-03-16T06:08:05;96296.47;;;1.01;100.00
11198;BME280;5655;48.744;9.162;2023-03-16T06:10:31;96306.59;;;1.07;100.00
11198;BME280;5655;48.744;9.162;2023-03-16T06:12:56;96305.19;;;1.10;100.00
11198;BME280;5655;48.744;9.162;2023-03-16T06:15:21;96311.84;;;1.07;100.00
11198;BME280;5655;48.744;9.162;2023-03-16T06:17:50;96303.13;;;1.29;100.00
11198;BME280;5655;48.744;9.162;2023-03-16T06:20:16;96300.44;;;1.20;100.00
11198;BME280;5655;48.744;9.162;2023-03-16T06:22:42;96310.03;;;1.16;100.00
11198;BME280;5655;48.744;9.162;2023-03-16T06:25:09;96312.34;;;1.18;100.00
11198;BME280;5655;48.744;9.162;2023-03-16T06:27:36;96313.13;;;1.18;100.00
11198;BME280;5655;48.744;9.162;2023-03-16T06:30:02;96312.31;;;1.09;100.00
11198;BME280;5655;48.744;9.162;2023-03-16T06:32:27;96318.16;;;1.28;100.00
11198;BME280;5655;48.744;9.162;2023-03-16T06:34:53;96320.25;;;1.49;100.00
11198;BME280;5655;48.744;9.162;2023-03-16T06:37:18;96315.38;;;1.33;100.00
11198;BME280;5655;48.744;9.162;2023-03-16T06:39:44;96314.00;;;1.36;100.00
11198;BME280;5655;48.744;9.162;2023-03-16T06:42:09;96308.63;;;1.50;100.00
11198;BME280;5655;48.744;9.162;2023-03-16T06:44:35;96313.09;;;1.49;100.00
11198;BME280;5655;48.744;9.162;2023-03-16T06:47:01;96306.56;;;1.38;100.00
11198;BME280;5655;48.744;9.162;2023-03-16T06:49:26;96313.84;;;1.41;100.00
11198;BME280;5655;48.744;9.162;2023-03-16T06:51:52;96316.28;;;1.77;100.00
11198;BME280;5655;48.744;9.162;2023-03-16T06:54:17;96314.91;;;1.88;100.00
11198;BME280;5655;48.744;9.162;2023-03-16T06:56:42;96324.06;;;1.82;100.00
11198;BME280;5655;48.744;9.162;2023-03-16T06:59:08;96317.38;;;1.76;100.00
11198;BME280;5655;48.744;9.162;2023-03-16T07:01:33;96323.44;;;1.76;100.00
11198;BME280;5655;48.744;9.162;2023-03-16T07:03:58;96327.47;;;1.82;100.00
11198;BME280;5655;48.744;9.162;2023-03-16T07:06:24;96322.69;;;1.93;100.00
11198;BME280;5655;48.744;9.162;2023-03-16T07:08:49;96321.44;;;1.99;100.00
11198;BME280;5655;48.744;9.162;2023-03-16T07:11:15;96323.81;;;2.18;100.00
11198;BME280;5655;48.744;9.162;2023-03-16T07:13:41;96318.84;;;2.34;100.00
11198;BME280;5655;48.744;9.162;2023-03-16T07:16:06;96334.88;;;2.46;100.00
11198;BME280;5655;48.744;9.162;2023-03-16T07:18:33;96331.13;;;2.64;100.00
11198;BME280;5655;48.744;9.162;2023-03-16T07:20:58;96330.50;;;2.50;100.00
11198;BME280;5655;48.744;9.162;2023-03-16T07:23:24;96327.53;;;2.34;100.00
11198;BME280;5655;48.744;9.162;2023-03-16T07:25:51;96328.47;;;2.72;100.00
11198;BME280;5655;48.744;9.162;2023-03-16T07:28:19;96325.50;;;2.91;100.00
11198;BME280;5655;48.744;9.162;2023-03-16T07:30:45;96329.53;;;2.97;100.00
11198;BME280;5655;48.744;9.162;2023-03-16T07:33:11;96331.13;;;2.64;100.00
11198;BME280;5655;48.744;9.162;2023-03-16T07:35:36;96330.78;;;2.91;100.00
11198;BME280;5655;48.744;9.162;2023-03-16T07:38:02;96335.56;;;3.06;100.00
11198;BME280;5655;48.744;9.162;2023-03-16T07:40:28;96333.25;;;2.96;100.00
11198;BME280;5655;48.744;9.162;2023-03-16T07:42:54;96327.00;;;3.09;100.00
11198;BME280;5655;48.744;9.162;2023-03-16T07:45:19;96330.59;;;3.13;100.00
11198;BME280;5655;48.744;9.162;2023-03-16T07:47:46;96331.19;;;3.19;100.00
11198;BME280;5655;48.744;9.162;2023-03-16T07:50:11;96331.38;;;3.52;100.00
11198;BME280;5655;48.744;9.162;2023-03-16T07:52:39;96333.81;;;3.65;100.00
11198;BME280;5655;48.744;9.162;2023-03-16T07:55:05;96336.50;;;3.86;100.00
11198;BME280;5655;48.744;9.162;2023-03-16T07:57:30;96335.88;;;3.89;100.00
11198;BME280;5655;48.744;9.162;2023-03-16T07:59:56;96341.72;;;3.74;100.00
11198;BME280;5655;48.744;9.162;2023-03-16T08:02:22;96331.69;;;3.88;100.00
11198;BME280;5655;48.744;9.162;2023-03-16T08:04:47;96335.16;;;4.09;100.00
11198;BME280;5655;48.744;9.162;2023-03-16T08:07:14;96340.34;;;3.97;100.00
11198;BME280;5655;48.744;9.162;2023-03-16T08:09:39;96334.25;;;4.05;100.00
11198;BME280;5655;48.744;9.162;2023-03-16T08:12:06;96331.47;;;4.43;100.00
11198;BME280;5655;48.744;9.162;2023-03-16T08:14:32;96332.09;;;4.20;100.00
11198;BME280;5655;48.744;9.162;2023-03-16T08:17:02;96332.31;;;4.56;100.00
11198;BME280;5655;48.744;9.162;2023-03-16T08:19:28;96337.44;;;4.94;100.00
11198;BME280;5655;48.744;9.162;2023-03-16T08:21:54;96329.63;;;5.10;100.00
11198;BME280;5655;48.744;9.162;2023-03-16T08:24:20;96333.19;;;5.14;100.00
11198;BME280;5655;48.744;9.162;2023-03-16T08:26:45;96335.91;;;5.50;100.00
11198;BME280;5655;48.744;9.162;2023-03-16T08:29:11;96333.25;;;5.38;100.00
11198;BME280;5655;48.744;9.162;2023-03-16T08:31:37;96336.56;;;5.02;100.00
11198;BME280;5655;48.744;9.162;2023-03-16T08:34:02;96337.38;;;5.15;100.00
11198;BME280;5655;48.744;9.162;2023-03-16T08:36:28;96332.78;;;5.48;100.00
11198;BME280;5655;48.744;9.162;2023-03-16T08:38:54;96321.53;;;5.39;100.00
11198;BME280;5655;48.744;9.162;2023-03-16T08:41:20;96324.63;;;5.41;100.00
11198;BME280;5655;48.744;9.162;2023-03-16T08:43:45;96318.41;;;5.25;100.00
11198;BME280;5655;48.744;9.162;2023-03-16T08:46:11;96320.28;;;5.36;100.00
11198;BME280;5655;48.744;9.162;2023-03-16T08:48:40;96318.69;;;5.56;100.00
11198;BME280;5655;48.744;9.162;2023-03-16T08:51:06;96312.59;;;5.92;100.00
11198;BME280;5655;48.744;9.162;2023-03-16T08:53:33;96317.13;;;5.79;100.00
11198;BME280;5655;48.744;9.162;2023-03-16T08:56:03;96314.03;;;6.02;100.00
11198;BME280;5655;48.744;9.162;2023-03-16T08:58:30;96315.34;;;5.71;100.00
11198;BME280;5655;48.744;9.162;2023-03-16T09:00:57;96312.47;;;5.76;100.00
11198;BME280;5655;48.744;9.162;2023-03-16T09:03:22;96315.53;;;6.27;100.00
11198;BME280;5655;48.744;9.162;2023-03-16T09:05:48;96317.53;;;6.42;100.00
11198;BME280;5655;48.744;9.162;2023-03-16T09:08:13;96322.94;;;6.46;100.00
11198;BME280;5655;48.744;9.162;2023-03-16T09:10:38;96324.31;;;6.67;100.00
11198;BME280;5655;48.744;9.162;2023-03-16T09:13:04;96322.34;;;6.52;100.00
11198;BME280;5655;48.744;9.162;2023-03-16T09:15:29;96327.38;;;6.69;100.00
11198;BME280;5655;48.744;9.162;2023-03-16T09:17:55;96330.03;;;6.69;100.00
11198;BME280;5655;48.744;9.162;2023-03-16T09:20:22;96319.56;;;6.89;100.00
11198;BME280;5655;48.744;9.162;2023-03-16T09:22:47;96323.66;;;7.14;100.00
11198;BME280;5655;48.744;9.162;2023-03-16T09:25:13;96312.94;;;7.26;100.00
11198;BME280;5655;48.744;9.162;2023-03-16T09:27:38;96314.50;;;7.43;100.00
11198;BME280;5655;48.744;9.162;2023-03-16T09:30:06;96309.28;;;7.46;100.00
11198;BME280;5655;48.744;9.162;2023-03-16T09:32:32;96301.59;;;7.60;100.00
11198;BME280;5655;48.744;9.162;2023-03-16T09:34:57;96307.34;;;7.94;100.00
11198;BME280;5655;48.744;9.162;2023-03-16T09:37:24;96306.00;;;7.84;100.00
11198;BME280;5655;48.744;9.162;2023-03-16T09:39:50;96314.97;;;8.11;100.00
11198;BME280;5655;48.744;9.162;2023-03-16T09:45:22;96320.53;;;8.56;100.00
11198;BME280;5655;48.744;9.162;2023-03-16T09:47:53;96304.41;;;8.88;100.00
11198;BME280;5655;48.744;9.162;2023-03-16T09:50:25;96292.28;;;9.13;100.00
11198;BME280;5655;48.744;9.162;2023-03-16T09:53:27;96297.09;;;9.27;100.00
11198;BME280;5655;48.744;9.162;2023-03-16T09:56:01;96291.16;;;9.14;100.00
11198;BME280;5655;48.744;9.162;2023-03-16T09:58:27;96294.53;;;9.11;100.00
11198;BME280;5655;48.744;9.162;2023-03-16T10:06:09;96286.34;;;9.00;100.00
11198;BME280;5655;48.744;9.162;2023-03-16T10:08:42;96283.84;;;9.11;100.00
11198;BME280;5655;48.744;9.162;2023-03-16T10:11:21;96281.44;;;9.25;100.00
11198;BME280;5655;48.744;9.162;2023-03-16T10:16:28;96291.84;;;9.11;100.00
11198;BME280;5655;48.744;9.162;2023-03-16T10:19:10;96295.03;;;9.39;100.00
11198;BME280;5655;48.744;9.162;2023-03-16T10:21:39;96305.94;;;9.76;100.00
11198;BME280;5655;48.744;9.162;2023-03-16T10:24:37;96303.56;;;10.20;100.00
11198;BME280;5655;48.744;9.162;2023-03-16T10:26:59;96290.69;;;10.29;100.00
11198;BME280;5655;48.744;9.162;2023-03-16T10:29:32;96291.25;;;10.42;100.00
11198;BME280;5655;48.744;9.162;2023-03-16T10:32:06;96286.34;;;10.48;100.00
11198;BME280;5655;48.744;9.162;2023-03-16T10:34:35;96270.97;;;10.41;100.00
11198;BME280;5655;48.744;9.162;2023-03-16T10:37:03;96277.00;;;10.34;100.00
11198;BME280;5655;48.744;9.162;2023-03-16T10:39:35;96276.22;;;10.64;100.00
11198;BME280;5655;48.744;9.162;2023-03-16T10:42:01;96272.97;;;11.18;100.00
11198;BME280;5655;48.744;9.162;2023-03-16T10:44:27;96276.56;;;11.32;100.00
11198;BME280;5655;48.744;9.162;2023-03-16T10:47:00;96279.66;;;11.78;100.00
11198;BME280;5655;48.744;9.162;2023-03-16T10:49:35;96276.72;;;11.10;100.00
11198;BME280;5655;48.744;9.162;2023-03-16T10:52:50;96271.06;;;11.18;100.00
11198;BME280;5655;48.744;9.162;2023-03-16T10:54:54;96270.16;;;11.44;100.00
11198;BME280;5655;48.744;9.162;2023-03-16T10:57:32;96265.97;;;11.47;100.00
11198;BME280;5655;48.744;9.162;2023-03-16T11:02:38;96259.34;;;11.33;100.00
11198;BME280;5655;48.744;9.162;2023-03-16T11:05:24;96252.34;;;11.69;100.00
11198;BME280;5655;48.744;9.162;2023-03-16T11:08:05;96247.78;;;12.24;100.00
11198;BME280;5655;48.744;9.162;2023-03-16T11:10:36;96241.38;;;12.54;100.00
11198;BME280;5655;48.744;9.162;2023-03-16T11:13:11;96254.47;;;12.66;100.00
11198;BME280;5655;48.744;9.162;2023-03-16T11:15:43;96260.56;;;12.56;100.00
11198;BME280;5655;48.744;9.162;2023-03-16T11:18:26;96258.47;;;13.14;100.00
11198;BME280;5655;48.744;9.162;2023-03-16T11:20:55;96251.47;;;12.89;100.00
11198;BME280;5655;48.744;9.162;2023-03-16T11:23:32;96248.50;;;13.18;100.00
11198;BME280;5655;48.744;9.162;2023-03-16T11:26:01;96253.03;;;13.00;97.65
11198;BME280;5655;48.744;9.162;2023-03-16T11:28:37;96241.22;;;13.23;100.00
11198;BME280;5655;48.744;9.162;2023-03-16T11:31:19;96234.69;;;13.55;93.55
11198;BME280;5655;48.744;9.162;2023-03-16T11:33:46;96235.44;;;13.91;88.52
11198;BME280;5655;48.744;9.162;2023-03-16T11:36:37;96234.66;;;14.01;81.38
11198;BME280;5655;48.744;9.162;2023-03-16T11:50:00;96226.81;;;14.60;69.57
11198;BME280;5655;48.744;9.162;2023-03-16T11:55:22;96223.75;;;14.51;61.94
11198;BME280;5655;48.744;9.162;2023-03-16T12:00:52;96205.84;;;14.96;62.19
11198;BME280;5655;48.744;9.162;2023-03-16T12:17:46;96183.06;;;15.04;62.49
11198;BME280;5655;48.744;9.162;2023-03-16T12:20:19;96173.84;;;15.50;63.66
11198;BME280;5655;48.744;9.162;2023-03-16T12:23:07;96180.34;;;16.00;60.24
11198;BME280;5655;48.744;9.162;2023-03-16T12:25:36;96178.59;;;16.51;58.95
11198;BME280;5655;48.744;9.162;2023-03-16T12:28:08;96190.47;;;16.57;60.32
11198;BME280;5655;48.744;9.162;2023-03-16T12:33:26;96197.28;;;16.01;57.64
11198;BME280;5655;48.744;9.162;2023-03-16T12:35:58;96193.91;;;16.27;57.73
11198;BME280;5655;48.744;9.162;2023-03-16T12:38:43;96185.31;;;16.39;56.98
11198;BME280;5655;48.744;9.162;2023-03-16T12:41:27;96174.75;;;16.18;56.91
11198;BME280;5655;48.744;9.162;2023-03-16T12:46:40;96184.47;;;15.74;57.67
11198;BME280;5655;48.744;9.162;2023-03-16T12:49:09;96176.34;;;16.12;57.07
11198;BME280;5655;48.744;9.162;2023-03-16T12:51:39;96174.81;;;16.11;56.66
11198;BME280;5655;48.744;9.162;2023-03-16T12:54:17;96165.13;;;16.47;56.76
11198;BME280;5655;48.744;9.162;2023-03-16T12:56:45;96155.84;;;16.48;57.04
11198;BME280;5655;48.744;9.162;2023-03-16T12:59:19;96160.28;;;16.65;51.85
11198;BME280;5655;48.744;9.162;2023-03-16T13:01:49;96160.91;;;16.76;52.22
11198;BME280;5655;48.744;9.162;2023-03-16T13:04:20;96154.25;;;15.86;51.25
11198;BME280;5655;48.744;9.162;2023-03-16T13:06:59;96155.72;;;15.95;51.05
11198;BME280;5655;48.744;9.162;2023-03-16T13:09:27;96149.78;;;16.07;52.03
11198;BME280;5655;48.744;9.162;2023-03-16T13:11:56;96146.03;;;15.97;50.85
11198;BME280;5655;48.744;9.162;2023-03-16T13:17:05;96150.19;;;16.39;51.87
11198;BME280;5655;48.744;9.162;2023-03-16T13:19:31;96155.38;;;16.26;52.45
11198;BME280;5655;48.744;9.162;2023-03-16T13:22:25;96154.59;;;16.26;52.20
11198;BME280;5655;48.744;9.162;2023-03-16T13:24:55;96158.81;;;16.61;52.74
11198;BME280;5655;48.744;9.162;2023-03-16T13:27:31;96151.63;;;16.77;51.49
11198;BME280;5655;48.744;9.162;2023-03-16T13:30:00;96146.22;;;16.77;50.94
11198;BME280;5655;48.744;9.162;2023-03-16T13:32:30;96142.88;;;15.68;52.43
11198;BME280;5655;48.744;9.162;2023-03-16T13:34:58;96137.38;;;15.79;53.00
11198;BME280;5655;48.744;9.162;2023-03-16T13:37:26;96145.50;;;16.13;51.89
11198;BME280;5655;48.744;9.162;2023-03-16T13:39:57;96132.44;;;16.08;48.37
11198;BME280;5655;48.744;9.162;2023-03-16T13:42:27;96132.94;;;15.58;47.80
11198;BME280;5655;48.744;9.162;2023-03-16T13:44:54;96141.16;;;15.40;48.26
11198;BME280;5655;48.744;9.162;2023-03-16T13:47:21;96129.44;;;15.17;48.82
11198;BME280;5655;48.744;9.162;2023-03-16T13:49:55;96132.44;;;15.26;49.32
11198;BME280;5655;48.744;9.162;2023-03-16T13:52:28;96136.50;;;15.52;49.83
11198;BME280;5655;48.744;9.162;2023-03-16T13:54:55;96132.38;;;15.33;49.23
11198;BME280;5655;48.744;9.162;2023-03-16T13:57:24;96120.09;;;15.28;51.29
11198;BME280;5655;48.744;9.162;2023-03-16T13:59:51;96117.84;;;15.20;51.19
11198;BME280;5655;48.744;9.162;2023-03-16T14:02:23;96126.31;;;15.66;50.25
11198;BME280;5655;48.744;9.162;2023-03-16T14:04:48;96115.66;;;15.89;49.60
11198;BME280;5655;48.744;9.162;2023-03-16T14:07:17;96120.81;;;16.11;49.50
11198;BME280;5655;48.744;9.162;2023-03-16T14:09:43;96117.63;;;15.48;49.66
11198;BME280;5655;48.744;9.162;2023-03-16T14:12:15;96108.22;;;15.63;48.53
11198;BME280;5655;48.744;9.162;2023-03-16T14:14:48;96101.88;;;15.80;48.87